Elysium — WDH8659 — position and weather

sailwx.info

Track history (hours):
 
Tides and Currents Weather Stations Pressure Air Temp Water Temp Dewpoint Dewpoint Depression Visibility Wind Speed Wind Dir Waves Ship Positions

Elysium

Owner: Schultz, Beverly A, Edmonds, WA. More information available from US FCC via Universal Licensing System and Coast Guard Vessel Documentation Center.

Last reported at 2017-Nov-12 22:42 UTC. Time now 2017-Nov-21 04:47 UTC.
Position N 47°60' W 122°13'.
Warning: this ship's position is 8 days out of date.

Length 13 m.

Type: Sailing vessel. MMSI: 367660260.

Date/timePositionNaut miles runAvg speedWind from/ knotsBaromVisibWave heightAir tempDewpointWater temp
2017-Nov-12 22:42N 47°60' W 122°13'1 5.6
2017-Nov-12 22:30N 47°59' W 122°15'3 6.4
2017-Nov-12 22:00N 47°57' W 122°19'3 6.4
2017-Nov-12 21:30N 47°55' W 122°22'3 6.2
2017-Nov-12 21:00N 47°52' W 122°24'4 7.0
2017-Nov-12 20:30N 47°49' W 122°27'2 0.1
2017-Nov-11 00:35N 47°48' W 122°30'0 0.1
2017-Nov-11 00:30N 47°48' W 122°30'2 4.3
2017-Nov-11 00:00N 47°49' W 122°27'3 6.2
2017-Nov-10 23:30N 47°51' W 122°25'4 7.2
2017-Nov-10 23:00N 47°55' W 122°22'4 7.4
2017-Nov-10 22:30N 47°57' W 122°18'3 7.0
2017-Nov-10 22:00N 47°59' W 122°14'  
Track history (hours):
 
Tides and Currents Weather Stations Pressure Air Temp Water Temp Dewpoint Dewpoint Depression Visibility Wind Speed Wind Dir Waves Ship Positions

Elysium

Owner: Schultz, Beverly A, Edmonds, WA. More information available from US FCC via Universal Licensing System and Coast Guard Vessel Documentation Center.

Last reported at 2017-Nov-12 22:42 UTC. Time now 2017-Nov-21 04:47 UTC.
Position N 47°60' W 122°13'.
Warning: this ship's position is 8 days out of date.

Length 13 m.

Type: Sailing vessel. MMSI: 367660260.

Date/timePositionNaut miles runAvg speedWind from/ knotsBaromVisibWave heightAir tempDewpointWater temp
2017-Nov-12 22:42N 47°60' W 122°13'1 5.6
2017-Nov-12 22:30N 47°59' W 122°15'3 6.4
2017-Nov-12 22:00N 47°57' W 122°19'3 6.4
2017-Nov-12 21:30N 47°55' W 122°22'3 6.2
2017-Nov-12 21:00N 47°52' W 122°24'4 7.0
2017-Nov-12 20:30N 47°49' W 122°27'2 0.1
2017-Nov-11 00:35N 47°48' W 122°30'0 0.1
2017-Nov-11 00:30N 47°48' W 122°30'2 4.3
2017-Nov-11 00:00N 47°49' W 122°27'3 6.2
2017-Nov-10 23:30N 47°51' W 122°25'4 7.2
2017-Nov-10 23:00N 47°55' W 122°22'4 7.4
2017-Nov-10 22:30N 47°57' W 122°18'3 7.0
2017-Nov-10 22:00N 47°59' W 122°14'  

Dump ship's entire track history